Aeroporto :
LOGIN :

Iscrizione | Disclaimer

   EN    FR    IT 

 










Sommario :    VFR   VFR Marginale   IFR   IFR Intensivo   IFR Molto Intensivo
Visibilità : 
Base nubi : 
>= 8 km
>= 3000ft
5 / 8 km
1000 / 3000 ft
1500m / 5 km
500 / 1000 ft
800 / 1500m
200 / 500 ft
< 800m
< 200 ft
Simboli :   Temporali  Nebbia  Neve Forte  Precipitazioni Forti  Vento > 20 kt
SIGMETs :   Varie  Temporali  Ghiacco  Turbolenza  Onda orograficha  Ceneri Vulcaniche






- Altitudine del aeroporto : 622 ft
- Codice IATA : BRS


EGGD - Bristol Int.

ULTIMO METAR :
  • 150020Z AUTO 02012KT 9999 OVC003 03/03 Q1004

METARs OBSOLETI :
  • 142350Z AUTO 02012KT 9999 OVC002 03/03 Q1004
  • 142320Z AUTO 02013KT 4900 BR OVC002 03/03 Q1004
  • 142250Z 03014KT 8000 -RA BKN002 OVC003 03/03 Q1004
  • 142220Z 03013KT 8000 -RA BKN002 OVC003 03/03 Q1003
  • 142150Z AUTO 03011KT 6000 -RA OVC002 03/02 Q1003

TAF TAF EGGD
Valido dal 15 a 00 ore il 16 a 00 ore UTC


142300Z 1500/1524 01012KT 9999 SCT002 BKN006
TEMPO 1500/1509 4000 BR -RADZ BKN002
PROB30
TEMPO 1500/1505 0300 FG OVC001
PROB30
TEMPO 1509/1513 7000 SHRA BKN004
BECMG 1511/1514 SCT012
BECMG 1514/1517 02018G28KT
BECMG 1520/1523 BKN006
TEMPO 1520/1524 6000 RA
ATIS : +44 1275 473 666



MetMap, La meteo Aeronautica in un colpo d'occhio ! - Copyright ORBIFLY Dicembre 2007 - Disclaimer

ORBIFLY MET'MAP TEAM :

Programmazione e sviluppo : Alexandra Zaïnal
Concezione e sviluppo : Baudouin d'Aumeries
Co-Programmazione e sviluppo : Marc-Olivier Méhu
Supporto tecnico e logistico : Manuel Goepfert
Aiuto per la traduzione : Arnaldo La Scala

Contatto : metmap@orbifly.com




FONTI E CREDITI :

   NOAA